sensor_id;sensor_type;location;lat;lon;timestamp;P1;durP1;ratioP1;P2;durP2;ratioP2
76127;SDS011;64873;50.102;14.434;2023-04-19T00:02:19;27.65;;;18.27;;
76127;SDS011;64873;50.102;14.434;2023-04-19T00:04:44;31.00;;;19.10;;
76127;SDS011;64873;50.102;14.434;2023-04-19T00:07:11;34.67;;;21.40;;
76127;SDS011;64873;50.102;14.434;2023-04-19T00:09:37;34.10;;;20.33;;
76127;SDS011;64873;50.102;14.434;2023-04-19T00:12:03;32.38;;;19.88;;
76127;SDS011;64873;50.102;14.434;2023-04-19T00:14:28;30.00;;;18.45;;
76127;SDS011;64873;50.102;14.434;2023-04-19T00:16:54;31.95;;;18.20;;
76127;SDS011;64873;50.102;14.434;2023-04-19T00:19:19;30.98;;;20.23;;
76127;SDS011;64873;50.102;14.434;2023-04-19T00:21:46;30.58;;;18.40;;
76127;SDS011;64873;50.102;14.434;2023-04-19T00:24:12;35.72;;;20.90;;
76127;SDS011;64873;50.102;14.434;2023-04-19T00:26:37;32.67;;;20.20;;
76127;SDS011;64873;50.102;14.434;2023-04-19T00:29:03;29.63;;;18.83;;
76127;SDS011;64873;50.102;14.434;2023-04-19T00:31:28;32.45;;;21.40;;
76127;SDS011;64873;50.102;14.434;2023-04-19T00:33:54;29.63;;;19.25;;
76127;SDS011;64873;50.102;14.434;2023-04-19T00:36:20;29.15;;;18.02;;
76127;SDS011;64873;50.102;14.434;2023-04-19T00:38:45;32.42;;;19.27;;
76127;SDS011;64873;50.102;14.434;2023-04-19T00:41:11;33.90;;;20.17;;
76127;SDS011;64873;50.102;14.434;2023-04-19T00:43:36;32.38;;;18.88;;
76127;SDS011;64873;50.102;14.434;2023-04-19T00:46:02;34.40;;;19.83;;
76127;SDS011;64873;50.102;14.434;2023-04-19T00:48:28;30.25;;;18.15;;
76127;SDS011;64873;50.102;14.434;2023-04-19T00:50:54;32.72;;;17.88;;
76127;SDS011;64873;50.102;14.434;2023-04-19T00:53:20;32.75;;;19.88;;
76127;SDS011;64873;50.102;14.434;2023-04-19T00:55:46;35.05;;;20.55;;
76127;SDS011;64873;50.102;14.434;2023-04-19T00:58:14;32.45;;;19.67;;
76127;SDS011;64873;50.102;14.434;2023-04-19T01:00:42;30.15;;;20.27;;
76127;SDS011;64873;50.102;14.434;2023-04-19T01:03:08;28.45;;;17.38;;
76127;SDS011;64873;50.102;14.434;2023-04-19T01:05:34;28.50;;;19.60;;
76127;SDS011;64873;50.102;14.434;2023-04-19T01:07:59;31.33;;;20.48;;
76127;SDS011;64873;50.102;14.434;2023-04-19T01:10:25;28.58;;;17.75;;
76127;SDS011;64873;50.102;14.434;2023-04-19T01:12:50;28.77;;;17.83;;
76127;SDS011;64873;50.102;14.434;2023-04-19T01:15:16;30.27;;;17.17;;
76127;SDS011;64873;50.102;14.434;2023-04-19T01:17:41;27.38;;;17.52;;
76127;SDS011;64873;50.102;14.434;2023-04-19T01:20:07;29.58;;;18.10;;
76127;SDS011;64873;50.102;14.434;2023-04-19T01:22:33;31.10;;;18.33;;
76127;SDS011;64873;50.102;14.434;2023-04-19T01:25:01;26.52;;;17.42;;
76127;SDS011;64873;50.102;14.434;2023-04-19T01:27:28;31.25;;;19.33;;
76127;SDS011;64873;50.102;14.434;2023-04-19T01:29:53;29.08;;;17.80;;
76127;SDS011;64873;50.102;14.434;2023-04-19T01:32:19;26.95;;;17.55;;
76127;SDS011;64873;50.102;14.434;2023-04-19T01:34:44;29.35;;;18.27;;
76127;SDS011;64873;50.102;14.434;2023-04-19T01:37:10;33.60;;;17.92;;
76127;SDS011;64873;50.102;14.434;2023-04-19T01:39:35;26.40;;;16.92;;
76127;SDS011;64873;50.102;14.434;2023-04-19T01:42:01;22.75;;;15.75;;
76127;SDS011;64873;50.102;14.434;2023-04-19T01:44:26;30.55;;;18.48;;
76127;SDS011;64873;50.102;14.434;2023-04-19T01:46:53;26.42;;;16.98;;
76127;SDS011;64873;50.102;14.434;2023-04-19T01:49:18;25.85;;;16.48;;
76127;SDS011;64873;50.102;14.434;2023-04-19T01:51:44;25.58;;;15.73;;
76127;SDS011;64873;50.102;14.434;2023-04-19T01:54:09;30.88;;;18.88;;
76127;SDS011;64873;50.102;14.434;2023-04-19T01:56:35;25.95;;;15.77;;
76127;SDS011;64873;50.102;14.434;2023-04-19T01:59:00;28.58;;;16.77;;
76127;SDS011;64873;50.102;14.434;2023-04-19T02:01:25;28.70;;;16.05;;
76127;SDS011;64873;50.102;14.434;2023-04-19T02:03:51;27.40;;;16.73;;
76127;SDS011;64873;50.102;14.434;2023-04-19T02:06:16;26.25;;;17.50;;
76127;SDS011;64873;50.102;14.434;2023-04-19T02:08:42;23.23;;;14.52;;
76127;SDS011;64873;50.102;14.434;2023-04-19T02:11:07;26.42;;;16.83;;
76127;SDS011;64873;50.102;14.434;2023-04-19T02:13:34;27.40;;;18.15;;
76127;SDS011;64873;50.102;14.434;2023-04-19T02:16:00;24.42;;;13.82;;
76127;SDS011;64873;50.102;14.434;2023-04-19T02:18:29;26.70;;;16.17;;
76127;SDS011;64873;50.102;14.434;2023-04-19T02:20:55;33.53;;;18.85;;
76127;SDS011;64873;50.102;14.434;2023-04-19T02:23:21;31.30;;;19.10;;
76127;SDS011;64873;50.102;14.434;2023-04-19T02:25:47;31.77;;;19.42;;
76127;SDS011;64873;50.102;14.434;2023-04-19T02:28:12;31.50;;;18.23;;
76127;SDS011;64873;50.102;14.434;2023-04-19T02:30:38;28.63;;;18.60;;
76127;SDS011;64873;50.102;14.434;2023-04-19T02:33:03;31.80;;;19.40;;
76127;SDS011;64873;50.102;14.434;2023-04-19T02:35:28;25.88;;;17.20;;
76127;SDS011;64873;50.102;14.434;2023-04-19T02:37:54;33.50;;;19.88;;
76127;SDS011;64873;50.102;14.434;2023-04-19T02:40:19;30.23;;;20.17;;
76127;SDS011;64873;50.102;14.434;2023-04-19T02:42:46;32.25;;;21.13;;
76127;SDS011;64873;50.102;14.434;2023-04-19T02:45:12;28.67;;;18.92;;
76127;SDS011;64873;50.102;14.434;2023-04-19T02:47:37;38.47;;;22.20;;
76127;SDS011;64873;50.102;14.434;2023-04-19T02:50:03;29.75;;;20.27;;
76127;SDS011;64873;50.102;14.434;2023-04-19T02:52:29;34.47;;;20.73;;
76127;SDS011;64873;50.102;14.434;2023-04-19T02:54:54;31.10;;;18.33;;
76127;SDS011;64873;50.102;14.434;2023-04-19T02:57:20;34.40;;;20.83;;
76127;SDS011;64873;50.102;14.434;2023-04-19T02:59:45;32.85;;;19.58;;
76127;SDS011;64873;50.102;14.434;2023-04-19T03:02:11;28.38;;;19.83;;
76127;SDS011;64873;50.102;14.434;2023-04-19T03:04:36;30.50;;;19.98;;
76127;SDS011;64873;50.102;14.434;2023-04-19T03:07:02;32.92;;;20.25;;
76127;SDS011;64873;50.102;14.434;2023-04-19T03:09:27;32.90;;;20.30;;
76127;SDS011;64873;50.102;14.434;2023-04-19T03:11:53;32.47;;;20.02;;
76127;SDS011;64873;50.102;14.434;2023-04-19T03:14:18;32.22;;;19.85;;
76127;SDS011;64873;50.102;14.434;2023-04-19T03:16:44;29.60;;;19.73;;
76127;SDS011;64873;50.102;14.434;2023-04-19T03:19:10;29.80;;;19.58;;
76127;SDS011;64873;50.102;14.434;2023-04-19T03:21:35;30.23;;;19.20;;
76127;SDS011;64873;50.102;14.434;2023-04-19T03:24:01;32.40;;;19.85;;
76127;SDS011;64873;50.102;14.434;2023-04-19T03:26:26;30.23;;;19.60;;
76127;SDS011;64873;50.102;14.434;2023-04-19T03:28:51;27.98;;;18.55;;
76127;SDS011;64873;50.102;14.434;2023-04-19T03:31:17;30.75;;;19.23;;
76127;SDS011;64873;50.102;14.434;2023-04-19T03:33:42;30.60;;;20.20;;
76127;SDS011;64873;50.102;14.434;2023-04-19T03:36:08;34.72;;;21.13;;
76127;SDS011;64873;50.102;14.434;2023-04-19T03:38:33;32.08;;;19.73;;
76127;SDS011;64873;50.102;14.434;2023-04-19T03:40:59;26.70;;;18.08;;
76127;SDS011;64873;50.102;14.434;2023-04-19T03:43:24;26.40;;;18.73;;
76127;SDS011;64873;50.102;14.434;2023-04-19T03:45:50;30.65;;;19.40;;
76127;SDS011;64873;50.102;14.434;2023-04-19T03:48:15;28.48;;;19.60;;
76127;SDS011;64873;50.102;14.434;2023-04-19T03:50:41;27.80;;;18.75;;
76127;SDS011;64873;50.102;14.434;2023-04-19T03:53:06;30.35;;;18.02;;
76127;SDS011;64873;50.102;14.434;2023-04-19T03:55:32;28.08;;;17.67;;
76127;SDS011;64873;50.102;14.434;2023-04-19T03:57:57;28.80;;;18.52;;
76127;SDS011;64873;50.102;14.434;2023-04-19T04:00:23;27.60;;;17.63;;
76127;SDS011;64873;50.102;14.434;2023-04-19T04:02:48;24.35;;;15.40;;
76127;SDS011;64873;50.102;14.434;2023-04-19T04:05:14;22.35;;;13.75;;
76127;SDS011;64873;50.102;14.434;2023-04-19T04:07:39;26.23;;;17.45;;
76127;SDS011;64873;50.102;14.434;2023-04-19T04:10:05;27.90;;;18.67;;
76127;SDS011;64873;50.102;14.434;2023-04-19T04:12:31;29.02;;;19.05;;
76127;SDS011;64873;50.102;14.434;2023-04-19T04:14:56;25.30;;;15.23;;
76127;SDS011;64873;50.102;14.434;2023-04-19T04:17:21;20.55;;;12.52;;
76127;SDS011;64873;50.102;14.434;2023-04-19T04:19:48;26.85;;;16.77;;
76127;SDS011;64873;50.102;14.434;2023-04-19T04:22:14;27.48;;;15.15;;
76127;SDS011;64873;50.102;14.434;2023-04-19T04:24:40;25.17;;;16.05;;
76127;SDS011;64873;50.102;14.434;2023-04-19T04:27:07;22.75;;;14.27;;
76127;SDS011;64873;50.102;14.434;2023-04-19T04:29:37;25.23;;;16.15;;
76127;SDS011;64873;50.102;14.434;2023-04-19T04:32:07;27.67;;;16.90;;
76127;SDS011;64873;50.102;14.434;2023-04-19T04:34:34;23.60;;;16.75;;
76127;SDS011;64873;50.102;14.434;2023-04-19T04:37:00;23.33;;;15.05;;
76127;SDS011;64873;50.102;14.434;2023-04-19T04:39:26;26.27;;;14.35;;
76127;SDS011;64873;50.102;14.434;2023-04-19T04:41:52;25.73;;;17.13;;
76127;SDS011;64873;50.102;14.434;2023-04-19T04:44:17;27.23;;;16.52;;
76127;SDS011;64873;50.102;14.434;2023-04-19T04:46:44;20.08;;;13.35;;
76127;SDS011;64873;50.102;14.434;2023-04-19T04:49:10;23.02;;;15.48;;
76127;SDS011;64873;50.102;14.434;2023-04-19T04:51:35;25.15;;;15.77;;
76127;SDS011;64873;50.102;14.434;2023-04-19T04:54:01;19.17;;;14.05;;
76127;SDS011;64873;50.102;14.434;2023-04-19T04:56:27;20.40;;;12.27;;
76127;SDS011;64873;50.102;14.434;2023-04-19T04:58:52;26.40;;;15.63;;
76127;SDS011;64873;50.102;14.434;2023-04-19T05:01:17;21.90;;;13.88;;
76127;SDS011;64873;50.102;14.434;2023-04-19T05:03:44;14.93;;;8.73;;
76127;SDS011;64873;50.102;14.434;2023-04-19T05:06:10;23.58;;;14.95;;
76127;SDS011;64873;50.102;14.434;2023-04-19T05:08:35;25.02;;;13.15;;
76127;SDS011;64873;50.102;14.434;2023-04-19T05:11:00;26.67;;;14.25;;
76127;SDS011;64873;50.102;14.434;2023-04-19T05:13:26;21.92;;;14.38;;
76127;SDS011;64873;50.102;14.434;2023-04-19T05:15:51;24.10;;;14.90;;
76127;SDS011;64873;50.102;14.434;2023-04-19T05:18:17;20.65;;;12.35;;
76127;SDS011;64873;50.102;14.434;2023-04-19T05:20:42;21.33;;;13.38;;
76127;SDS011;64873;50.102;14.434;2023-04-19T05:23:08;19.60;;;11.82;;
76127;SDS011;64873;50.102;14.434;2023-04-19T05:25:35;22.13;;;13.25;;
76127;SDS011;64873;50.102;14.434;2023-04-19T05:28:01;17.15;;;9.68;;
76127;SDS011;64873;50.102;14.434;2023-04-19T05:30:27;15.85;;;9.75;;
76127;SDS011;64873;50.102;14.434;2023-04-19T05:32:53;20.98;;;12.90;;
76127;SDS011;64873;50.102;14.434;2023-04-19T05:35:18;19.58;;;11.10;;
76127;SDS011;64873;50.102;14.434;2023-04-19T05:37:44;16.55;;;9.70;;
76127;SDS011;64873;50.102;14.434;2023-04-19T05:40:09;17.05;;;9.63;;
76127;SDS011;64873;50.102;14.434;2023-04-19T05:42:35;20.85;;;12.32;;
76127;SDS011;64873;50.102;14.434;2023-04-19T05:45:01;16.50;;;9.50;;
76127;SDS011;64873;50.102;14.434;2023-04-19T05:47:26;20.63;;;10.93;;
76127;SDS011;64873;50.102;14.434;2023-04-19T05:49:52;21.23;;;10.63;;
76127;SDS011;64873;50.102;14.434;2023-04-19T05:52:17;22.92;;;10.43;;
76127;SDS011;64873;50.102;14.434;2023-04-19T05:54:42;20.48;;;12.25;;
76127;SDS011;64873;50.102;14.434;2023-04-19T05:57:08;20.15;;;11.50;;
76127;SDS011;64873;50.102;14.434;2023-04-19T05:59:34;19.38;;;10.85;;
76127;SDS011;64873;50.102;14.434;2023-04-19T06:01:59;24.05;;;10.50;;
76127;SDS011;64873;50.102;14.434;2023-04-19T06:04:25;23.15;;;12.07;;
76127;SDS011;64873;50.102;14.434;2023-04-19T06:06:51;21.75;;;12.38;;
76127;SDS011;64873;50.102;14.434;2023-04-19T06:09:16;18.90;;;12.30;;
76127;SDS011;64873;50.102;14.434;2023-04-19T06:11:42;9.77;;;5.55;;
76127;SDS011;64873;50.102;14.434;2023-04-19T06:14:09;17.63;;;10.25;;
76127;SDS011;64873;50.102;14.434;2023-04-19T06:16:35;20.10;;;10.25;;
76127;SDS011;64873;50.102;14.434;2023-04-19T06:19:00;17.67;;;10.10;;
76127;SDS011;64873;50.102;14.434;2023-04-19T06:21:25;18.48;;;9.93;;
76127;SDS011;64873;50.102;14.434;2023-04-19T06:23:54;18.40;;;10.57;;
76127;SDS011;64873;50.102;14.434;2023-04-19T06:26:20;17.08;;;9.38;;
76127;SDS011;64873;50.102;14.434;2023-04-19T06:28:45;21.40;;;12.10;;
76127;SDS011;64873;50.102;14.434;2023-04-19T06:31:11;15.68;;;9.55;;
76127;SDS011;64873;50.102;14.434;2023-04-19T06:33:36;14.82;;;8.35;;
76127;SDS011;64873;50.102;14.434;2023-04-19T06:36:02;18.38;;;11.00;;
76127;SDS011;64873;50.102;14.434;2023-04-19T06:38:28;16.52;;;8.13;;
76127;SDS011;64873;50.102;14.434;2023-04-19T06:40:53;11.43;;;6.95;;
76127;SDS011;64873;50.102;14.434;2023-04-19T06:43:19;15.80;;;9.50;;
76127;SDS011;64873;50.102;14.434;2023-04-19T06:45:45;17.85;;;10.38;;
76127;SDS011;64873;50.102;14.434;2023-04-19T06:48:11;20.65;;;11.43;;
76127;SDS011;64873;50.102;14.434;2023-04-19T06:50:36;18.67;;;7.88;;
76127;SDS011;64873;50.102;14.434;2023-04-19T06:53:02;23.08;;;11.75;;
76127;SDS011;64873;50.102;14.434;2023-04-19T06:55:27;21.90;;;12.45;;
76127;SDS011;64873;50.102;14.434;2023-04-19T06:57:53;24.40;;;10.32;;
76127;SDS011;64873;50.102;14.434;2023-04-19T07:00:18;13.95;;;7.90;;
76127;SDS011;64873;50.102;14.434;2023-04-19T07:02:44;16.35;;;10.15;;
76127;SDS011;64873;50.102;14.434;2023-04-19T07:05:09;17.17;;;10.02;;
76127;SDS011;64873;50.102;14.434;2023-04-19T07:07:36;16.77;;;9.65;;
76127;SDS011;64873;50.102;14.434;2023-04-19T07:10:02;14.48;;;8.57;;
76127;SDS011;64873;50.102;14.434;2023-04-19T07:12:27;16.88;;;9.73;;
76127;SDS011;64873;50.102;14.434;2023-04-19T07:14:53;17.35;;;10.15;;
76127;SDS011;64873;50.102;14.434;2023-04-19T07:17:21;16.80;;;8.98;;
76127;SDS011;64873;50.102;14.434;2023-04-19T07:19:47;14.25;;;7.20;;
76127;SDS011;64873;50.102;14.434;2023-04-19T07:22:13;17.08;;;9.88;;
76127;SDS011;64873;50.102;14.434;2023-04-19T07:24:39;16.42;;;9.68;;
76127;SDS011;64873;50.102;14.434;2023-04-19T07:27:06;21.67;;;8.40;;
76127;SDS011;64873;50.102;14.434;2023-04-19T07:29:33;12.65;;;8.30;;
76127;SDS011;64873;50.102;14.434;2023-04-19T07:31:59;14.88;;;9.25;;
76127;SDS011;64873;50.102;14.434;2023-04-19T07:34:25;13.15;;;8.25;;
76127;SDS011;64873;50.102;14.434;2023-04-19T07:36:51;12.32;;;6.93;;
76127;SDS011;64873;50.102;14.434;2023-04-19T07:39:16;11.93;;;6.82;;
76127;SDS011;64873;50.102;14.434;2023-04-19T07:41:42;17.45;;;6.97;;
76127;SDS011;64873;50.102;14.434;2023-04-19T07:44:08;11.40;;;7.00;;
76127;SDS011;64873;50.102;14.434;2023-04-19T07:46:33;13.10;;;7.60;;
76127;SDS011;64873;50.102;14.434;2023-04-19T07:48:59;11.43;;;7.07;;
76127;SDS011;64873;50.102;14.434;2023-04-19T07:51:24;11.77;;;6.53;;
76127;SDS011;64873;50.102;14.434;2023-04-19T07:53:50;9.10;;;5.70;;
76127;SDS011;64873;50.102;14.434;2023-04-19T07:56:15;9.13;;;6.18;;
76127;SDS011;64873;50.102;14.434;2023-04-19T07:58:41;11.32;;;6.10;;
76127;SDS011;64873;50.102;14.434;2023-04-19T08:01:06;8.45;;;5.30;;
76127;SDS011;64873;50.102;14.434;2023-04-19T08:03:32;9.90;;;5.03;;
76127;SDS011;64873;50.102;14.434;2023-04-19T08:05:59;11.63;;;5.93;;
76127;SDS011;64873;50.102;14.434;2023-04-19T08:08:26;8.13;;;4.85;;
76127;SDS011;64873;50.102;14.434;2023-04-19T08:10:52;10.77;;;5.22;;
76127;SDS011;64873;50.102;14.434;2023-04-19T08:13:20;11.18;;;5.97;;
76127;SDS011;64873;50.102;14.434;2023-04-19T08:15:46;11.95;;;5.78;;
76127;SDS011;64873;50.102;14.434;2023-04-19T08:18:11;11.90;;;5.63;;
76127;SDS011;64873;50.102;14.434;2023-04-19T08:20:36;7.15;;;4.50;;
76127;SDS011;64873;50.102;14.434;2023-04-19T08:23:02;9.57;;;4.43;;
76127;SDS011;64873;50.102;14.434;2023-04-19T08:25:30;13.13;;;4.65;;
76127;SDS011;64873;50.102;14.434;2023-04-19T08:27:55;8.20;;;5.03;;
76127;SDS011;64873;50.102;14.434;2023-04-19T08:30:22;8.57;;;3.58;;
76127;SDS011;64873;50.102;14.434;2023-04-19T08:32:48;5.80;;;3.80;;
76127;SDS011;64873;50.102;14.434;2023-04-19T08:35:15;6.78;;;4.63;;
76127;SDS011;64873;50.102;14.434;2023-04-19T08:37:40;7.97;;;3.53;;
76127;SDS011;64873;50.102;14.434;2023-04-19T08:40:06;3.97;;;2.90;;
76127;SDS011;64873;50.102;14.434;2023-04-19T08:42:32;5.38;;;2.72;;
76127;SDS011;64873;50.102;14.434;2023-04-19T08:44:59;5.95;;;2.42;;
76127;SDS011;64873;50.102;14.434;2023-04-19T08:47:27;8.30;;;3.28;;
76127;SDS011;64873;50.102;14.434;2023-04-19T08:49:54;5.07;;;2.70;;
76127;SDS011;64873;50.102;14.434;2023-04-19T08:52:21;5.43;;;2.78;;
76127;SDS011;64873;50.102;14.434;2023-04-19T08:54:48;8.30;;;2.75;;
76127;SDS011;64873;50.102;14.434;2023-04-19T08:57:14;3.60;;;1.85;;
76127;SDS011;64873;50.102;14.434;2023-04-19T08:59:40;13.68;;;2.28;;
76127;SDS011;64873;50.102;14.434;2023-04-19T09:02:09;3.80;;;1.42;;
76127;SDS011;64873;50.102;14.434;2023-04-19T09:04:35;6.38;;;1.60;;
76127;SDS011;64873;50.102;14.434;2023-04-19T09:07:00;3.22;;;1.98;;
76127;SDS011;64873;50.102;14.434;2023-04-19T09:09:26;4.78;;;1.70;;
76127;SDS011;64873;50.102;14.434;2023-04-19T09:11:53;7.00;;;1.50;;
76127;SDS011;64873;50.102;14.434;2023-04-19T09:14:20;6.05;;;1.77;;
76127;SDS011;64873;50.102;14.434;2023-04-19T09:16:46;4.75;;;1.60;;
76127;SDS011;64873;50.102;14.434;2023-04-19T09:19:12;2.25;;;1.48;;
76127;SDS011;64873;50.102;14.434;2023-04-19T09:21:38;4.40;;;1.20;;
76127;SDS011;64873;50.102;14.434;2023-04-19T09:24:04;6.97;;;1.50;;
76127;SDS011;64873;50.102;14.434;2023-04-19T09:26:30;5.28;;;1.30;;
76127;SDS011;64873;50.102;14.434;2023-04-19T09:31:26;3.00;;;1.10;;
76127;SDS011;64873;50.102;14.434;2023-04-19T09:33:53;6.65;;;1.60;;
76127;SDS011;64873;50.102;14.434;2023-04-19T09:36:26;4.53;;;1.60;;
76127;SDS011;64873;50.102;14.434;2023-04-19T09:38:52;3.20;;;1.27;;
76127;SDS011;64873;50.102;14.434;2023-04-19T09:41:18;3.80;;;1.70;;
76127;SDS011;64873;50.102;14.434;2023-04-19T09:43:43;4.55;;;1.30;;
76127;SDS011;64873;50.102;14.434;2023-04-19T09:46:28;4.78;;;1.10;;
76127;SDS011;64873;50.102;14.434;2023-04-19T09:48:55;3.22;;;1.70;;
76127;SDS011;64873;50.102;14.434;2023-04-19T09:51:44;2.58;;;1.15;;
76127;SDS011;64873;50.102;14.434;2023-04-19T09:54:14;5.57;;;2.00;;
76127;SDS011;64873;50.102;14.434;2023-04-19T09:56:41;4.90;;;2.08;;
76127;SDS011;64873;50.102;14.434;2023-04-19T09:59:07;4.10;;;1.63;;
76127;SDS011;64873;50.102;14.434;2023-04-19T10:01:37;12.82;;;2.65;;
76127;SDS011;64873;50.102;14.434;2023-04-19T10:04:17;5.88;;;1.55;;
76127;SDS011;64873;50.102;14.434;2023-04-19T10:06:50;5.40;;;1.92;;
76127;SDS011;64873;50.102;14.434;2023-04-19T10:09:17;5.55;;;2.25;;
76127;SDS011;64873;50.102;14.434;2023-04-19T10:11:47;11.43;;;2.47;;
76127;SDS011;64873;50.102;14.434;2023-04-19T10:14:18;7.90;;;2.35;;
76127;SDS011;64873;50.102;14.434;2023-04-19T10:16:48;13.32;;;2.10;;
76127;SDS011;64873;50.102;14.434;2023-04-19T10:19:14;3.92;;;2.00;;
76127;SDS011;64873;50.102;14.434;2023-04-19T10:21:42;8.02;;;2.75;;
76127;SDS011;64873;50.102;14.434;2023-04-19T10:24:11;3.63;;;1.83;;
76127;SDS011;64873;50.102;14.434;2023-04-19T10:32:25;5.03;;;2.05;;
76127;SDS011;64873;50.102;14.434;2023-04-19T10:34:52;10.40;;;2.80;;
76127;SDS011;64873;50.102;14.434;2023-04-19T10:37:20;10.45;;;2.55;;
76127;SDS011;64873;50.102;14.434;2023-04-19T10:39:50;8.75;;;2.25;;
76127;SDS011;64873;50.102;14.434;2023-04-19T10:42:15;4.30;;;1.95;;
76127;SDS011;64873;50.102;14.434;2023-04-19T10:44:41;10.43;;;2.20;;
76127;SDS011;64873;50.102;14.434;2023-04-19T10:47:06;5.95;;;2.70;;
76127;SDS011;64873;50.102;14.434;2023-04-19T10:49:42;6.35;;;3.00;;
76127;SDS011;64873;50.102;14.434;2023-04-19T10:52:43;8.68;;;2.53;;
76127;SDS011;64873;50.102;14.434;2023-04-19T10:55:03;12.53;;;3.00;;
76127;SDS011;64873;50.102;14.434;2023-04-19T10:57:59;6.97;;;2.03;;
76127;SDS011;64873;50.102;14.434;2023-04-19T11:00:31;4.82;;;2.40;;
76127;SDS011;64873;50.102;14.434;2023-04-19T11:03:50;5.90;;;1.98;;
76127;SDS011;64873;50.102;14.434;2023-04-19T11:06:17;6.22;;;1.98;;
76127;SDS011;64873;50.102;14.434;2023-04-19T11:08:45;5.75;;;1.80;;
76127;SDS011;64873;50.102;14.434;2023-04-19T11:11:11;3.97;;;2.28;;
76127;SDS011;64873;50.102;14.434;2023-04-19T11:13:40;3.65;;;1.65;;
76127;SDS011;64873;50.102;14.434;2023-04-19T11:16:07;6.00;;;2.05;;
76127;SDS011;64873;50.102;14.434;2023-04-19T11:18:33;3.75;;;1.70;;
76127;SDS011;64873;50.102;14.434;2023-04-19T11:20:58;7.45;;;2.47;;
76127;SDS011;64873;50.102;14.434;2023-04-19T11:23:25;6.10;;;2.03;;
76127;SDS011;64873;50.102;14.434;2023-04-19T11:25:50;5.63;;;2.33;;
76127;SDS011;64873;50.102;14.434;2023-04-19T11:28:17;3.40;;;2.08;;
76127;SDS011;64873;50.102;14.434;2023-04-19T11:30:42;6.35;;;2.13;;
76127;SDS011;64873;50.102;14.434;2023-04-19T11:33:09;2.92;;;1.48;;
76127;SDS011;64873;50.102;14.434;2023-04-19T11:35:36;5.43;;;2.30;;
76127;SDS011;64873;50.102;14.434;2023-04-19T11:38:02;8.82;;;2.03;;
76127;SDS011;64873;50.102;14.434;2023-04-19T11:40:31;3.40;;;1.80;;
76127;SDS011;64873;50.102;14.434;2023-04-19T11:43:01;6.20;;;2.25;;
76127;SDS011;64873;50.102;14.434;2023-04-19T11:45:30;5.50;;;1.90;;
76127;SDS011;64873;50.102;14.434;2023-04-19T11:48:06;2.63;;;1.50;;
76127;SDS011;64873;50.102;14.434;2023-04-19T11:50:41;5.43;;;1.73;;
76127;SDS011;64873;50.102;14.434;2023-04-19T11:53:17;4.28;;;1.38;;
76127;SDS011;64873;50.102;14.434;2023-04-19T11:55:54;2.47;;;1.40;;
76127;SDS011;64873;50.102;14.434;2023-04-19T12:01:08;2.90;;;1.63;;
76127;SDS011;64873;50.102;14.434;2023-04-19T12:03:51;6.22;;;1.90;;
76127;SDS011;64873;50.102;14.434;2023-04-19T12:06:19;3.75;;;1.75;;
76127;SDS011;64873;50.102;14.434;2023-04-19T12:08:48;4.57;;;1.63;;
76127;SDS011;64873;50.102;14.434;2023-04-19T12:11:15;2.65;;;1.33;;
76127;SDS011;64873;50.102;14.434;2023-04-19T12:13:48;8.45;;;1.73;;
76127;SDS011;64873;50.102;14.434;2023-04-19T12:16:35;5.38;;;2.13;;
76127;SDS011;64873;50.102;14.434;2023-04-19T12:19:11;5.20;;;1.60;;
76127;SDS011;64873;50.102;14.434;2023-04-19T12:21:41;3.97;;;1.38;;
76127;SDS011;64873;50.102;14.434;2023-04-19T12:24:08;1.95;;;0.93;;
76127;SDS011;64873;50.102;14.434;2023-04-19T12:26:33;6.93;;;1.58;;
76127;SDS011;64873;50.102;14.434;2023-04-19T12:29:00;4.53;;;1.63;;
76127;SDS011;64873;50.102;14.434;2023-04-19T12:31:26;4.75;;;1.63;;
76127;SDS011;64873;50.102;14.434;2023-04-19T12:33:52;5.05;;;1.73;;
76127;SDS011;64873;50.102;14.434;2023-04-19T12:36:18;11.15;;;1.55;;
76127;SDS011;64873;50.102;14.434;2023-04-19T12:38:43;5.63;;;1.90;;
76127;SDS011;64873;50.102;14.434;2023-04-19T12:41:09;5.20;;;1.80;;
76127;SDS011;64873;50.102;14.434;2023-04-19T12:43:35;4.25;;;1.35;;
76127;SDS011;64873;50.102;14.434;2023-04-19T12:46:00;2.13;;;1.15;;
76127;SDS011;64873;50.102;14.434;2023-04-19T12:48:26;2.30;;;1.23;;
76127;SDS011;64873;50.102;14.434;2023-04-19T12:50:52;6.00;;;2.05;;
76127;SDS011;64873;50.102;14.434;2023-04-19T12:53:18;5.53;;;1.80;;
76127;SDS011;64873;50.102;14.434;2023-04-19T12:55:44;3.97;;;1.85;;
76127;SDS011;64873;50.102;14.434;2023-04-19T12:58:14;3.90;;;2.13;;
76127;SDS011;64873;50.102;14.434;2023-04-19T13:00:41;2.70;;;1.48;;
76127;SDS011;64873;50.102;14.434;2023-04-19T13:03:07;3.88;;;1.88;;
76127;SDS011;64873;50.102;14.434;2023-04-19T13:05:32;5.72;;;1.83;;
76127;SDS011;64873;50.102;14.434;2023-04-19T13:07:58;9.57;;;1.98;;
76127;SDS011;64873;50.102;14.434;2023-04-19T13:10:24;1.92;;;1.30;;
76127;SDS011;64873;50.102;14.434;2023-04-19T13:12:49;7.40;;;1.92;;
76127;SDS011;64873;50.102;14.434;2023-04-19T13:15:15;8.43;;;1.80;;
76127;SDS011;64873;50.102;14.434;2023-04-19T13:17:41;2.58;;;1.17;;
76127;SDS011;64873;50.102;14.434;2023-04-19T13:20:06;2.22;;;1.30;;
76127;SDS011;64873;50.102;14.434;2023-04-19T13:22:33;3.17;;;1.45;;
76127;SDS011;64873;50.102;14.434;2023-04-19T13:24:58;5.85;;;1.98;;
76127;SDS011;64873;50.102;14.434;2023-04-19T13:27:24;3.40;;;1.50;;
76127;SDS011;64873;50.102;14.434;2023-04-19T13:29:49;4.97;;;1.58;;
76127;SDS011;64873;50.102;14.434;2023-04-19T13:32:15;6.30;;;1.85;;
76127;SDS011;64873;50.102;14.434;2023-04-19T13:34:40;5.47;;;1.83;;
76127;SDS011;64873;50.102;14.434;2023-04-19T13:37:06;3.55;;;1.15;;
76127;SDS011;64873;50.102;14.434;2023-04-19T13:39:32;4.38;;;1.70;;
76127;SDS011;64873;50.102;14.434;2023-04-19T13:41:58;4.18;;;1.70;;
76127;SDS011;64873;50.102;14.434;2023-04-19T13:44:23;5.65;;;2.10;;
76127;SDS011;64873;50.102;14.434;2023-04-19T13:46:49;6.07;;;1.80;;
76127;SDS011;64873;50.102;14.434;2023-04-19T13:49:16;5.85;;;2.13;;
76127;SDS011;64873;50.102;14.434;2023-04-19T13:51:42;4.60;;;1.65;;
76127;SDS011;64873;50.102;14.434;2023-04-19T13:54:07;3.78;;;1.90;;
76127;SDS011;64873;50.102;14.434;2023-04-19T13:56:33;1.90;;;1.10;;
76127;SDS011;64873;50.102;14.434;2023-04-19T13:58:58;3.63;;;2.03;;
76127;SDS011;64873;50.102;14.434;2023-04-19T14:01:23;5.00;;;1.77;;
76127;SDS011;64873;50.102;14.434;2023-04-19T14:03:49;6.63;;;2.17;;
76127;SDS011;64873;50.102;14.434;2023-04-19T14:06:14;3.05;;;2.00;;
76127;SDS011;64873;50.102;14.434;2023-04-19T14:08:40;4.32;;;1.65;;
76127;SDS011;64873;50.102;14.434;2023-04-19T14:11:06;3.95;;;1.92;;
76127;SDS011;64873;50.102;14.434;2023-04-19T14:13:32;7.45;;;1.83;;
76127;SDS011;64873;50.102;14.434;2023-04-19T14:15:57;5.43;;;1.67;;
76127;SDS011;64873;50.102;14.434;2023-04-19T14:18:22;3.53;;;1.52;;
76127;SDS011;64873;50.102;14.434;2023-04-19T14:20:48;3.95;;;1.60;;
76127;SDS011;64873;50.102;14.434;2023-04-19T14:23:13;2.30;;;1.38;;
76127;SDS011;64873;50.102;14.434;2023-04-19T14:25:39;3.95;;;2.00;;
76127;SDS011;64873;50.102;14.434;2023-04-19T14:28:04;5.40;;;1.95;;
76127;SDS011;64873;50.102;14.434;2023-04-19T14:30:29;9.00;;;2.00;;